Time;durP1;ratioP1;P1;durP2;ratioP2;P2;SDS_P1;SDS_P2;PMS_P1;PMS_P2;Temp;Humidity;BMP_temperature;BMP_pressure;BME280_temperature;BME280_humidity;BME280_pressure;Samples;Min_cycle;Max_cycle;Signal;HPM_P1;HPM_P2
2021/09/06 00:00:49;;;;;;;4.05;1.25;;;20.30;57.40;;;;;;2366341;53;20961;-69
2021/09/06 00:03:16;;;;;;;3.00;1.60;;;20.30;57.50;;;;;;2369269;52;20997;-68
2021/09/06 00:05:42;;;;;;;3.15;1.73;;;20.20;57.50;;;;;;2477771;52;20938;-69
2021/09/06 00:08:09;;;;;;;3.75;1.90;;;20.20;57.60;;;;;;2365075;53;21600;-70
2021/09/06 00:10:37;;;;;;;2.97;1.37;;;20.20;57.60;;;;;;2374515;52;21010;-68
2021/09/06 00:13:05;;;;;;;2.87;1.40;;;20.20;57.70;;;;;;2345390;53;21773;-69
2021/09/06 00:15:32;;;;;;;3.10;1.50;;;20.20;57.80;;;;;;2372338;52;20946;-69
2021/09/06 00:17:58;;;;;;;3.15;1.65;;;20.20;57.80;;;;;;2405042;52;20989;-69
2021/09/06 00:20:27;;;;;;;3.37;1.80;;;20.10;57.70;;;;;;2367262;53;20949;-69
2021/09/06 00:22:54;;;;;;;2.70;1.40;;;20.10;57.80;;;;;;2347832;53;20961;-68
2021/09/06 00:25:20;;;;;;;2.75;1.45;;;20.10;57.80;;;;;;2370809;53;20958;-67
2021/09/06 00:27:49;;;;;;;2.90;1.50;;;20.10;57.80;;;;;;2347953;53;20953;-72
2021/09/06 00:30:16;;;;;;;3.40;1.67;;;20.10;57.80;;;;;;2364262;53;20989;-69
2021/09/06 00:32:42;;;;;;;3.12;1.58;;;20.00;57.70;;;;;;2375329;53;20963;-71
2021/09/06 00:35:09;;;;;;;3.90;1.90;;;20.00;57.80;;;;;;2358053;53;21284;-69
2021/09/06 00:37:37;;;;;;;3.83;1.87;;;20.00;57.80;;;;;;2367199;53;21036;-70
2021/09/06 00:40:04;;;;;;;3.28;1.73;;;20.00;57.80;;;;;;2367265;53;21401;-68
2021/09/06 00:42:32;;;;;;;3.97;1.87;;;19.90;57.80;;;;;;2371838;52;20923;-68
2021/09/06 00:44:58;;;;;;;3.53;1.62;;;19.90;57.90;;;;;;2367205;53;20961;-68
2021/09/06 00:47:26;;;;;;;2.92;1.73;;;19.90;57.90;;;;;;2525880;52;21070;-71
2021/09/06 00:49:55;;;;;;;2.55;1.40;;;19.80;57.80;;;;;;2370075;52;21588;-69
2021/09/06 00:52:21;;;;;;;3.17;1.70;;;19.80;57.90;;;;;;2367252;53;20950;-68
2021/09/06 00:54:48;;;;;;;3.20;1.52;;;19.70;57.80;;;;;;2553163;52;21049;-68
2021/09/06 00:57:17;;;;;;;3.30;1.70;;;19.70;57.80;;;;;;2367776;53;20937;-71
2021/09/06 00:59:45;;;;;;;3.00;1.52;;;19.70;57.90;;;;;;2421148;52;20946;-67
2021/09/06 01:02:14;;;;;;;3.40;1.70;;;19.70;57.90;;;;;;2366836;53;21457;-70
2021/09/06 01:04:42;;;;;;;4.25;1.70;;;19.60;58.00;;;;;;2375934;52;20981;-69
2021/09/06 01:07:09;;;;;;;3.80;1.87;;;19.60;58.10;;;;;;2355414;53;21072;-69
2021/09/06 01:09:35;;;;;;;3.03;1.48;;;19.60;58.20;;;;;;2366949;52;21023;-69
2021/09/06 01:12:02;;;;;;;3.17;1.58;;;19.50;58.20;;;;;;2366642;53;20968;-69
2021/09/06 01:14:28;;;;;;;4.15;2.05;;;19.50;58.20;;;;;;2371994;52;21026;-68
2021/09/06 01:16:54;;;;;;;3.05;1.62;;;19.50;58.20;;;;;;2366748;53;21244;-69
2021/09/06 01:19:21;;;;;;;3.03;1.70;;;19.50;58.20;;;;;;2367296;53;20930;-71
2021/09/06 01:21:49;;;;;;;4.12;1.77;;;19.50;58.20;;;;;;2375547;52;20947;-71
2021/09/06 01:24:16;;;;;;;4.53;1.83;;;19.40;58.10;;;;;;2359366;53;21419;-67
2021/09/06 01:26:46;;;;;;;3.58;1.60;;;19.40;58.20;;;;;;2366437;52;21026;-68
2021/09/06 01:29:15;;;;;;;4.25;1.90;;;19.40;58.30;;;;;;2367147;53;21001;-69
2021/09/06 01:31:41;;;;;;;4.22;2.00;;;19.40;58.40;;;;;;2372036;52;21776;-70
2021/09/06 01:34:11;;;;;;;3.00;1.62;;;19.30;58.40;;;;;;2366487;53;20932;-67
2021/09/06 01:36:38;;;;;;;2.90;1.40;;;19.30;58.50;;;;;;2474971;52;20942;-68
2021/09/06 01:39:05;;;;;;;3.15;1.58;;;19.30;58.40;;;;;;2367546;53;20989;-69
2021/09/06 01:41:32;;;;;;;2.83;1.60;;;19.30;58.40;;;;;;2371114;53;21014;-69
2021/09/06 01:43:59;;;;;;;3.53;1.92;;;19.30;58.40;;;;;;2371049;52;21887;-68
2021/09/06 01:46:34;;;;;;;3.20;1.75;;;19.20;58.40;;;;;;2374297;53;20970;-67
2021/09/06 01:49:00;;;;;;;4.10;2.30;;;19.20;58.60;;;;;;2613049;52;21034;-68
2021/09/06 01:51:29;;;;;;;2.92;1.70;;;19.20;58.50;;;;;;2367483;53;20997;-70
2021/09/06 01:53:55;;;;;;;3.37;1.62;;;19.10;58.50;;;;;;2368428;52;21033;-67
2021/09/06 01:56:22;;;;;;;3.30;1.85;;;19.10;58.50;;;;;;2370545;52;20927;-68
2021/09/06 01:58:48;;;;;;;3.60;1.77;;;19.10;58.60;;;;;;2346291;53;20996;-68
2021/09/06 02:01:15;;;;;;;3.15;1.80;;;19.10;58.60;;;;;;2424006;52;21023;-68
2021/09/06 02:03:41;;;;;;;3.50;1.70;;;19.00;58.60;;;;;;2617806;52;20964;-69
2021/09/06 02:06:08;;;;;;;4.15;2.10;;;19.00;58.60;;;;;;2613805;52;20934;-69
2021/09/06 02:08:34;;;;;;;3.53;2.00;;;19.00;58.70;;;;;;2347431;53;21000;-70
2021/09/06 02:11:01;;;;;;;3.67;1.92;;;18.90;58.60;;;;;;2366887;53;20984;-67
2021/09/06 02:13:27;;;;;;;3.72;1.83;;;18.90;58.60;;;;;;2368215;52;20977;-69
2021/09/06 02:15:54;;;;;;;4.37;1.80;;;18.90;58.70;;;;;;2367727;53;20949;-67
2021/09/06 02:18:23;;;;;;;3.20;1.90;;;18.90;58.80;;;;;;2372651;53;20939;-67
2021/09/06 02:20:49;;;;;;;3.80;2.00;;;18.80;58.90;;;;;;2369680;52;20966;-68
2021/09/06 02:23:18;;;;;;;3.92;2.08;;;18.80;58.90;;;;;;2373733;53;20938;-68
2021/09/06 02:25:45;;;;;;;3.92;1.85;;;18.80;59.00;;;;;;2355261;53;20941;-68
2021/09/06 02:28:12;;;;;;;3.67;1.80;;;18.80;59.00;;;;;;2367496;53;20918;-67
2021/09/06 02:30:39;;;;;;;3.85;2.08;;;18.80;58.90;;;;;;2619213;52;20965;-71
2021/09/06 02:33:05;;;;;;;3.45;1.80;;;18.70;58.90;;;;;;2371687;52;20943;-69
2021/09/06 02:35:31;;;;;;;4.43;2.00;;;18.70;58.90;;;;;;2366341;53;20967;-68
2021/09/06 02:37:58;;;;;;;4.03;2.00;;;18.70;59.00;;;;;;2367025;52;21453;-69
2021/09/06 02:40:24;;;;;;;3.72;2.03;;;18.70;59.00;;;;;;2371471;53;21005;-68
2021/09/06 02:42:51;;;;;;;4.28;2.20;;;18.70;59.00;;;;;;2371267;52;20949;-71
2021/09/06 02:45:18;;;;;;;3.72;2.00;;;18.60;59.00;;;;;;2364201;53;21024;-69
2021/09/06 02:47:47;;;;;;;4.00;2.15;;;18.60;59.10;;;;;;2365163;53;21437;-69
2021/09/06 02:50:14;;;;;;;3.87;2.10;;;18.60;59.10;;;;;;2370392;53;21010;-69
2021/09/06 02:52:46;;;;;;;3.75;1.90;;;18.60;59.20;;;;;;2618145;52;20945;-70
2021/09/06 02:55:12;;;;;;;3.58;1.83;;;18.60;59.30;;;;;;2589962;52;20921;-68
2021/09/06 02:57:38;;;;;;;3.03;1.60;;;18.60;59.20;;;;;;2370548;53;20961;-67
2021/09/06 03:00:06;;;;;;;3.70;1.87;;;18.50;59.10;;;;;;2366775;53;20965;-67
2021/09/06 03:02:32;;;;;;;5.90;2.22;;;18.50;59.00;;;;;;2372490;52;21004;-68
2021/09/06 03:04:59;;;;;;;3.37;1.90;;;18.50;59.10;;;;;;2363667;53;21017;-70
2021/09/06 03:07:27;;;;;;;4.70;2.70;;;18.50;59.20;;;;;;2362622;53;20987;-72
2021/09/06 03:09:54;;;;;;;4.72;2.28;;;18.40;59.20;;;;;;2620489;52;21038;-67
2021/09/06 03:12:20;;;;;;;3.58;2.05;;;18.40;59.30;;;;;;2605205;52;21936;-69
2021/09/06 03:14:46;;;;;;;4.75;2.00;;;18.40;59.40;;;;;;2356387;53;20993;-69
2021/09/06 03:17:13;;;;;;;4.82;2.20;;;18.40;59.30;;;;;;2367510;53;21743;-70
2021/09/06 03:19:39;;;;;;;3.67;1.80;;;18.30;59.20;;;;;;2371010;53;20925;-70
2021/09/06 03:22:06;;;;;;;4.03;2.10;;;18.40;59.90;;;;;;2371061;53;21022;-69
2021/09/06 03:24:35;;;;;;;3.90;1.55;;;18.30;59.30;;;;;;2371544;53;20953;-70
2021/09/06 03:27:01;;;;;;;4.35;2.20;;;18.20;59.30;;;;;;2618251;52;21049;-67
2021/09/06 03:29:27;;;;;;;3.78;1.95;;;18.20;59.40;;;;;;2367184;53;20918;-69
2021/09/06 03:31:54;;;;;;;4.85;2.80;;;18.20;59.40;;;;;;2370365;53;20962;-68
2021/09/06 03:34:20;;;;;;;5.20;2.45;;;18.20;59.40;;;;;;2402905;52;21034;-67
2021/09/06 03:36:46;;;;;;;3.80;2.17;;;18.20;59.50;;;;;;2618299;52;20925;-68
2021/09/06 03:39:13;;;;;;;4.35;2.10;;;18.20;59.50;;;;;;2367179;53;20942;-70
2021/09/06 03:41:39;;;;;;;3.92;2.47;;;18.10;59.40;;;;;;2355396;53;20968;-68
2021/09/06 03:44:05;;;;;;;3.60;2.30;;;18.10;59.50;;;;;;2351751;52;21361;-67
2021/09/06 03:46:31;;;;;;;3.60;1.85;;;18.10;59.50;;;;;;2329296;53;21417;-67
2021/09/06 03:48:58;;;;;;;4.40;2.62;;;18.10;59.50;;;;;;2345371;53;21479;-69
2021/09/06 03:51:24;;;;;;;3.87;2.08;;;18.10;59.50;;;;;;2352015;52;21137;-67
2021/09/06 03:53:51;;;;;;;4.30;2.30;;;18.00;59.50;;;;;;2351547;53;21544;-69
2021/09/06 03:56:20;;;;;;;4.05;1.95;;;18.00;59.60;;;;;;2333687;53;20954;-68
2021/09/06 03:58:47;;;;;;;3.37;1.95;;;18.00;59.70;;;;;;2345394;52;20937;-71
2021/09/06 04:01:13;;;;;;;3.67;1.60;;;18.00;59.60;;;;;;2349706;53;21370;-68
2021/09/06 04:03:41;;;;;;;3.40;1.98;;;18.00;59.70;;;;;;2465004;52;21005;-69
2021/09/06 04:06:07;;;;;;;4.20;2.42;;;18.00;59.70;;;;;;2345243;53;20957;-71
2021/09/06 04:08:33;;;;;;;3.60;1.92;;;18.00;59.70;;;;;;2346634;53;21381;-69
2021/09/06 04:11:00;;;;;;;3.50;2.17;;;18.00;59.60;;;;;;2348680;52;21375;-70
2021/09/06 04:13:26;;;;;;;4.60;2.28;;;17.90;59.60;;;;;;2345685;53;21025;-70
2021/09/06 04:15:52;;;;;;;5.10;2.62;;;17.90;59.50;;;;;;2326372;53;21138;-69
2021/09/06 04:18:19;;;;;;;4.12;2.30;;;17.90;59.50;;;;;;2350175;52;21010;-71
2021/09/06 04:20:47;;;;;;;4.37;2.12;;;17.90;59.60;;;;;;2346225;53;21770;-68
2021/09/06 04:23:13;;;;;;;4.62;2.42;;;17.90;59.60;;;;;;2349661;53;21009;-69
2021/09/06 04:25:39;;;;;;;4.07;2.60;;;17.90;59.60;;;;;;2345795;53;21404;-70
2021/09/06 04:28:06;;;;;;;3.97;2.33;;;17.80;59.50;;;;;;2349732;53;21417;-70
2021/09/06 04:30:32;;;;;;;3.72;1.95;;;17.80;59.60;;;;;;2350305;52;20970;-70
2021/09/06 04:32:59;;;;;;;3.30;1.90;;;17.80;59.60;;;;;;2346041;53;22017;-72
2021/09/06 04:35:25;;;;;;;3.75;1.90;;;17.80;59.60;;;;;;2596503;52;20942;-68
2021/09/06 04:37:51;;;;;;;3.70;2.12;;;17.80;59.60;;;;;;2345370;53;21418;-68
2021/09/06 04:40:18;;;;;;;6.32;2.75;;;17.80;59.60;;;;;;2367964;52;21024;-70
2021/09/06 04:42:45;;;;;;;3.92;2.20;;;17.70;59.50;;;;;;2346375;53;21313;-69
2021/09/06 04:45:11;;;;;;;4.15;2.25;;;17.70;59.60;;;;;;2346341;53;20945;-68
2021/09/06 04:47:37;;;;;;;3.60;2.20;;;17.70;59.70;;;;;;2345871;53;20973;-69
2021/09/06 04:50:05;;;;;;;4.72;2.22;;;17.70;59.70;;;;;;2426466;52;21419;-69
2021/09/06 04:52:32;;;;;;;4.05;2.33;;;17.60;59.70;;;;;;2344823;53;21308;-66
2021/09/06 04:54:58;;;;;;;3.95;2.22;;;17.60;59.70;;;;;;2596114;52;20996;-68
2021/09/06 04:57:25;;;;;;;3.65;2.12;;;17.60;59.70;;;;;;2346395;52;20945;-72
2021/09/06 04:59:52;;;;;;;3.83;2.20;;;17.60;59.80;;;;;;2597573;52;22249;-68
2021/09/06 05:02:18;;;;;;;3.55;1.95;;;17.60;59.90;;;;;;2344676;52;21116;-68
2021/09/06 05:04:45;;;;;;;6.80;2.40;;;17.60;59.90;;;;;;2595063;52;21687;-67
2021/09/06 05:07:11;;;;;;;3.85;2.22;;;17.50;59.80;;;;;;2345950;53;21437;-67
2021/09/06 05:09:37;;;;;;;4.03;2.30;;;17.50;59.80;;;;;;2436709;52;21017;-66
2021/09/06 05:12:04;;;;;;;3.22;1.85;;;17.50;59.80;;;;;;2350285;52;21002;-71
2021/09/06 05:14:31;;;;;;;5.05;2.40;;;17.50;59.90;;;;;;2473091;52;21055;-69
2021/09/06 05:16:58;;;;;;;3.95;2.35;;;17.50;60.00;;;;;;2425290;52;21001;-68
2021/09/06 05:19:25;;;;;;;4.30;2.33;;;17.50;60.00;;;;;;2378082;52;21005;-68
2021/09/06 05:21:51;;;;;;;5.00;2.10;;;17.50;60.00;;;;;;2423341;52;21304;-71
2021/09/06 05:24:18;;;;;;;4.65;1.98;;;17.50;60.10;;;;;;2345949;53;21088;-70
2021/09/06 05:26:44;;;;;;;3.70;2.22;;;17.40;60.00;;;;;;2346279;53;21443;-68
2021/09/06 05:29:11;;;;;;;3.75;2.30;;;17.50;60.10;;;;;;2350900;53;21510;-67
2021/09/06 05:31:37;;;;;;;4.35;2.70;;;17.50;60.10;;;;;;2358892;52;21310;-66
2021/09/06 05:34:04;;;;;;;4.78;2.45;;;17.50;60.10;;;;;;2417048;52;21605;-68
2021/09/06 05:36:30;;;;;;;4.40;2.12;;;17.50;60.10;;;;;;2573646;52;21803;-68
2021/09/06 05:38:56;;;;;;;4.10;2.37;;;17.50;60.10;;;;;;2531052;52;20963;-70
2021/09/06 05:41:23;;;;;;;4.47;2.22;;;17.50;60.30;;;;;;2328600;53;21019;-68
2021/09/06 05:43:50;;;;;;;4.18;2.53;;;17.50;60.30;;;;;;2371733;52;22026;-68
2021/09/06 05:46:16;;;;;;;5.65;2.67;;;17.50;60.50;;;;;;2334241;53;21506;-70
2021/09/06 05:48:42;;;;;;;3.83;2.25;;;17.50;60.60;;;;;;2595890;52;21226;-68
2021/09/06 05:51:09;;;;;;;3.55;2.10;;;17.50;60.70;;;;;;2350407;52;21293;-70
2021/09/06 05:53:35;;;;;;;3.75;2.30;;;17.50;60.70;;;;;;2479359;52;20969;-68
2021/09/06 05:56:01;;;;;;;3.85;2.17;;;17.40;60.70;;;;;;2334739;53;21026;-71
2021/09/06 05:58:28;;;;;;;5.30;2.87;;;17.50;60.90;;;;;;2396667;52;21357;-69
2021/09/06 06:00:54;;;;;;;4.55;2.78;;;17.50;60.90;;;;;;2346688;53;21006;-70
2021/09/06 06:03:21;;;;;;;3.97;2.40;;;17.50;60.90;;;;;;2357769;52;21412;-66
2021/09/06 06:05:47;;;;;;;3.65;1.85;;;17.60;61.10;;;;;;2366908;52;20997;-69
2021/09/06 06:08:14;;;;;;;3.50;2.00;;;17.60;61.10;;;;;;2358255;52;21463;-70
2021/09/06 06:10:40;;;;;;;3.65;2.17;;;17.60;61.20;;;;;;2430233;52;21332;-66
2021/09/06 06:13:06;;;;;;;4.53;2.55;;;17.70;61.30;;;;;;2539863;52;21425;-70
2021/09/06 06:15:33;;;;;;;4.25;2.35;;;17.70;61.40;;;;;;2598512;52;21614;-70
2021/09/06 06:17:59;;;;;;;4.70;2.70;;;17.70;61.40;;;;;;2585944;52;21412;-70
2021/09/06 06:20:25;;;;;;;3.25;1.98;;;17.80;61.70;;;;;;2347613;53;21001;-70
2021/09/06 06:22:52;;;;;;;4.30;2.30;;;17.80;61.70;;;;;;2596178;52;22041;-71
2021/09/06 06:25:19;;;;;;;4.37;2.17;;;17.80;61.80;;;;;;2349768;53;21329;-71
2021/09/06 06:27:45;;;;;;;5.18;2.17;;;17.90;62.00;;;;;;2595642;52;21524;-69
2021/09/06 06:30:13;;;;;;;3.37;1.90;;;17.90;62.10;;;;;;2346020;53;21385;-67
2021/09/06 06:32:39;;;;;;;3.62;2.03;;;18.00;62.30;;;;;;2347401;52;20942;-69
2021/09/06 06:35:07;;;;;;;4.40;2.50;;;18.00;62.30;;;;;;2345151;52;20973;-70
2021/09/06 06:37:34;;;;;;;4.93;2.85;;;18.10;62.50;;;;;;2382223;52;20926;-71
2021/09/06 06:40:00;;;;;;;3.97;2.37;;;18.20;62.90;;;;;;2346746;53;20949;-68
2021/09/06 06:42:27;;;;;;;4.30;2.58;;;18.30;63.10;;;;;;2350712;53;21361;-67
2021/09/06 06:44:53;;;;;;;5.03;3.15;;;18.40;63.40;;;;;;2347060;53;21139;-69
2021/09/06 06:47:19;;;;;;;5.32;2.85;;;18.50;63.60;;;;;;2510616;52;20946;-68
2021/09/06 06:49:45;;;;;;;4.72;2.80;;;18.60;63.70;;;;;;2348754;52;21501;-70
2021/09/06 06:52:13;;;;;;;4.62;2.80;;;18.70;63.90;;;;;;2484118;52;20953;-68
2021/09/06 06:54:39;;;;;;;5.10;3.20;;;18.80;64.00;;;;;;2346238;53;20933;-67
2021/09/06 06:57:06;;;;;;;4.22;2.55;;;18.90;63.90;;;;;;2596692;52;20986;-68
2021/09/06 06:59:33;;;;;;;4.82;2.97;;;19.00;63.90;;;;;;2346886;53;21128;-70
2021/09/06 07:02:00;;;;;;;4.93;2.92;;;19.10;63.90;;;;;;2594854;52;21312;-69
2021/09/06 07:04:26;;;;;;;5.28;2.90;;;19.20;63.90;;;;;;2345775;53;21433;-71
2021/09/06 07:06:53;;;;;;;4.75;2.95;;;19.30;63.90;;;;;;2594670;52;20958;-73
2021/09/06 07:09:19;;;;;;;5.62;2.97;;;19.40;63.90;;;;;;2346042;53;21435;-70
2021/09/06 07:11:46;;;;;;;5.95;2.87;;;19.50;64.00;;;;;;2360511;52;21037;-71
2021/09/06 07:14:12;;;;;;;4.32;2.78;;;19.60;64.00;;;;;;2334612;53;21364;-72
2021/09/06 07:16:39;;;;;;;5.12;2.67;;;19.70;64.20;;;;;;2347254;52;21557;-67
2021/09/06 07:19:05;;;;;;;4.68;2.22;;;19.80;64.20;;;;;;2353008;52;21551;-69
2021/09/06 07:21:32;;;;;;;4.50;2.58;;;19.90;64.20;;;;;;2418440;52;21033;-68
2021/09/06 07:23:58;;;;;;;4.45;2.80;;;20.00;64.20;;;;;;2335504;52;20941;-68
2021/09/06 07:26:25;;;;;;;4.18;2.50;;;20.10;64.10;;;;;;2383935;52;20961;-68
2021/09/06 07:28:51;;;;;;;4.62;2.78;;;20.20;64.10;;;;;;2346436;53;22028;-72
2021/09/06 07:31:18;;;;;;;4.75;2.92;;;20.30;64.10;;;;;;2349059;53;20981;-69
2021/09/06 07:33:44;;;;;;;4.82;2.33;;;20.40;64.10;;;;;;2346037;53;20953;-68
2021/09/06 07:36:11;;;;;;;4.07;2.55;;;20.50;64.10;;;;;;2516935;52;21569;-70
2021/09/06 07:38:38;;;;;;;4.30;2.70;;;20.60;64.00;;;;;;2474555;52;21614;-69
2021/09/06 07:41:04;;;;;;;4.80;3.00;;;20.70;64.00;;;;;;2346928;53;21448;-70
2021/09/06 07:43:31;;;;;;;4.55;2.50;;;20.80;64.00;;;;;;2339920;53;21426;-68
2021/09/06 07:45:57;;;;;;;5.10;2.80;;;20.90;63.90;;;;;;2563950;52;21013;-72
2021/09/06 07:48:24;;;;;;;5.45;3.30;;;21.00;63.90;;;;;;2601340;52;21446;-70
2021/09/06 07:50:50;;;;;;;4.82;3.08;;;21.10;63.90;;;;;;2601587;52;21979;-70
2021/09/06 07:53:17;;;;;;;3.90;2.67;;;21.20;64.00;;;;;;2351228;53;20948;-70
2021/09/06 07:55:43;;;;;;;4.18;2.58;;;21.30;63.90;;;;;;2494687;52;21951;-68
2021/09/06 07:58:10;;;;;;;4.50;2.70;;;21.40;63.80;;;;;;2351343;53;21509;-69
2021/09/06 08:00:37;;;;;;;3.72;2.33;;;21.50;63.90;;;;;;2384184;52;20977;-68
2021/09/06 08:03:03;;;;;;;3.83;2.40;;;21.60;63.90;;;;;;2351239;53;21469;-70
2021/09/06 08:05:30;;;;;;;5.20;2.75;;;21.70;63.90;;;;;;2499492;52;21465;-70
2021/09/06 08:07:56;;;;;;;4.53;2.70;;;21.80;63.90;;;;;;2349775;53;21471;-68
2021/09/06 08:10:23;;;;;;;4.07;2.20;;;21.90;63.80;;;;;;2351496;53;21572;-72
2021/09/06 08:12:50;;;;;;;4.43;2.65;;;22.00;63.70;;;;;;2351219;53;22060;-70
2021/09/06 08:15:16;;;;;;;4.55;2.90;;;22.10;63.60;;;;;;2601412;52;21009;-68
2021/09/06 08:17:42;;;;;;;4.18;2.50;;;22.20;63.70;;;;;;2351369;52;20933;-69
2021/09/06 08:20:22;;;;;;;4.55;2.97;;;22.30;63.80;;;;;;2601907;52;20953;-70
2021/09/06 08:22:49;;;;;;;4.40;2.58;;;22.40;63.70;;;;;;2355672;52;21428;-72
2021/09/06 08:25:15;;;;;;;4.32;2.67;;;22.50;63.40;;;;;;2401173;52;20977;-69
2021/09/06 08:27:41;;;;;;;10.20;3.25;;;22.60;63.30;;;;;;2351706;53;21339;-69
2021/09/06 08:30:10;;;;;;;4.68;2.78;;;22.60;63.00;;;;;;2573766;52;21006;-70
2021/09/06 08:32:37;;;;;;;4.70;2.78;;;22.70;62.80;;;;;;2351316;53;20989;-70
2021/09/06 08:35:05;;;;;;;3.97;2.80;;;22.80;62.80;;;;;;2351273;53;20997;-70
2021/09/06 08:37:31;;;;;;;4.90;2.85;;;22.80;62.50;;;;;;2351421;53;21005;-69
2021/09/06 08:39:57;;;;;;;4.55;2.37;;;22.90;62.60;;;;;;2355485;53;20927;-68
2021/09/06 08:42:24;;;;;;;5.57;2.87;;;23.00;62.60;;;;;;2355928;52;21471;-70
2021/09/06 08:44:50;;;;;;;4.93;2.70;;;23.10;62.60;;;;;;2382172;52;20981;-70
2021/09/06 08:47:16;;;;;;;4.22;2.92;;;23.20;62.50;;;;;;2356393;52;20989;-74
2021/09/06 08:49:45;;;;;;;4.75;2.55;;;23.20;62.20;;;;;;2600850;52;21336;-70
2021/09/06 08:52:11;;;;;;;5.05;3.45;;;23.40;62.40;;;;;;2360215;52;21624;-71
2021/09/06 08:54:38;;;;;;;5.60;3.58;;;23.40;62.40;;;;;;2589729;52;21965;-69
2021/09/06 08:57:04;;;;;;;4.45;3.12;;;23.50;62.20;;;;;;2349996;53;21511;-69
2021/09/06 08:59:30;;;;;;;4.80;2.97;;;23.60;62.10;;;;;;2351090;53;20996;-71
2021/09/06 09:01:57;;;;;;;5.05;3.03;;;23.80;62.40;;;;;;2601447;52;21269;-69
2021/09/06 09:04:27;;;;;;;4.43;2.78;;;23.90;62.40;;;;;;2355539;53;21995;-69
2021/09/06 09:06:56;;;;;;;4.12;2.42;;;24.00;62.10;;;;;;2350631;53;20933;-71
2021/09/06 09:09:35;;;;;;;4.25;2.75;;;24.20;62.70;;;;;;2493022;52;20950;-70
2021/09/06 09:12:12;;;;;;;4.65;2.78;;;24.30;61.50;;;;;;2351006;53;21490;-69
2021/09/06 09:14:41;;;;;;;3.87;2.35;;;24.40;61.30;;;;;;2600605;52;21439;-68
2021/09/06 09:17:10;;;;;;;4.43;2.55;;;24.40;61.20;;;;;;2566358;52;20966;-70
2021/09/06 09:19:37;;;;;;;4.43;2.70;;;24.50;61.10;;;;;;2488476;52;21501;-68
2021/09/06 09:22:12;;;;;;;4.15;2.50;;;24.60;61.00;;;;;;2351434;53;21536;-72
2021/09/06 09:24:39;;;;;;;4.60;2.75;;;24.60;60.90;;;;;;2354929;53;21932;-69
2021/09/06 09:27:15;;;;;;;4.15;2.60;;;24.70;60.80;;;;;;2600984;52;21070;-70
2021/09/06 09:29:44;;;;;;;4.20;2.65;;;24.80;60.60;;;;;;2359772;53;21591;-75
2021/09/06 09:32:11;;;;;;;4.82;2.80;;;24.80;60.50;;;;;;2352488;52;20899;-70
2021/09/06 09:34:42;;;;;;;4.70;2.55;;;24.90;60.60;;;;;;2462285;52;22039;-69
2021/09/06 09:37:09;;;;;;;5.70;2.50;;;24.90;60.20;;;;;;2356062;53;20990;-69
2021/09/06 09:39:37;;;;;;;4.35;2.50;;;25.00;60.40;;;;;;2470459;52;21638;-67
2021/09/06 09:42:09;;;;;;;4.32;2.70;;;25.10;60.40;;;;;;2351651;53;21397;-69
2021/09/06 09:44:55;;;;;;;4.35;2.30;;;25.20;60.20;;;;;;2470760;52;21980;-72
2021/09/06 09:47:23;;;;;;;4.47;2.65;;;25.20;59.80;;;;;;2357092;52;21396;-71
2021/09/06 09:49:57;;;;;;;4.00;2.40;;;25.30;60.10;;;;;;2436400;52;20922;-72
2021/09/06 09:52:23;;;;;;;5.35;2.83;;;25.40;59.80;;;;;;2352929;53;20957;-70
2021/09/06 09:54:54;;;;;;;3.95;2.65;;;25.50;60.10;;;;;;2600469;52;20918;-69
2021/09/06 09:57:25;;;;;;;4.80;2.72;;;25.50;59.90;;;;;;2337383;53;21145;-70
2021/09/06 09:59:52;;;;;;;4.40;2.87;;;25.60;59.80;;;;;;2354615;53;20933;-70
2021/09/06 10:02:24;;;;;;;3.70;2.42;;;25.70;59.80;;;;;;2603047;52;20997;-69
2021/09/06 10:04:55;;;;;;;5.12;2.65;;;25.80;59.80;;;;;;2336427;53;20946;-71
2021/09/06 10:07:25;;;;;;;4.93;2.90;;;25.90;59.80;;;;;;2358652;52;20991;-70
2021/09/06 10:09:52;;;;;;;5.25;2.65;;;26.00;59.60;;;;;;2354873;53;21380;-69
2021/09/06 10:12:23;;;;;;;4.68;2.80;;;26.10;59.40;;;;;;2603013;52;20954;-69
2021/09/06 10:14:57;;;;;;;4.00;2.55;;;26.10;59.00;;;;;;2319643;53;20950;-70
2021/09/06 10:17:51;;;;;;;4.70;2.12;;;26.20;58.60;;;;;;2332150;53;20933;-69
2021/09/06 10:20:22;;;;;;;3.42;2.37;;;26.30;59.00;;;;;;2352012;53;21481;-68
2021/09/06 10:23:01;;;;;;;4.47;2.62;;;26.50;58.70;;;;;;2359965;52;21346;-67
2021/09/06 10:25:29;;;;;;;3.90;2.50;;;26.50;57.80;;;;;;2587699;52;21516;-70
2021/09/06 10:28:06;;;;;;;4.10;2.53;;;26.60;57.90;;;;;;2339431;53;21553;-68
2021/09/06 10:30:51;;;;;;;3.78;2.53;;;26.70;57.60;;;;;;2348896;53;21482;-70
2021/09/06 10:33:28;;;;;;;3.95;2.60;;;26.70;57.40;;;;;;2416104;52;20975;-69
2021/09/06 10:37:47;;;;;;;3.90;2.30;;;26.70;56.50;;;;;;2349493;53;20954;-70
2021/09/06 10:40:30;;;;;;;3.75;2.00;;;26.80;56.90;;;;;;2355869;52;21353;-68
2021/09/06 10:42:57;;;;;;;3.78;2.37;;;26.80;56.60;;;;;;2424777;53;21026;-69
2021/09/06 10:45:23;;;;;;;4.40;2.65;;;27.00;56.90;;;;;;2344958;53;21958;-68
2021/09/06 10:47:59;;;;;;;4.20;2.60;;;27.00;56.60;;;;;;2343767;52;20942;-67
2021/09/06 10:50:26;;;;;;;4.70;2.72;;;27.00;56.10;;;;;;2345393;53;20989;-70
2021/09/06 10:52:52;;;;;;;3.92;2.30;;;27.10;56.70;;;;;;2339333;53;21132;-70
2021/09/06 10:55:19;;;;;;;4.60;2.53;;;27.20;56.60;;;;;;2356594;52;20975;-71
2021/09/06 10:57:46;;;;;;;4.10;2.50;;;27.20;56.50;;;;;;2337925;53;21562;-69
2021/09/06 11:00:22;;;;;;;4.20;2.58;;;27.30;56.50;;;;;;2351986;53;20953;-72
2021/09/06 11:02:50;;;;;;;3.08;2.08;;;27.30;56.10;;;;;;2372359;52;21015;-68
2021/09/06 11:05:23;;;;;;;4.30;2.50;;;27.40;56.40;;;;;;2356208;52;22303;-68
2021/09/06 11:07:50;;;;;;;4.80;2.50;;;27.50;56.00;;;;;;2534403;52;20930;-69
2021/09/06 11:10:22;;;;;;;3.97;2.47;;;27.60;56.10;;;;;;2351979;53;21032;-68
2021/09/06 11:12:58;;;;;;;4.37;2.70;;;27.60;56.00;;;;;;2352076;53;22074;-68
2021/09/06 11:15:33;;;;;;;4.20;2.33;;;27.80;55.70;;;;;;2352404;53;20961;-69
2021/09/06 11:18:02;;;;;;;4.50;2.70;;;27.90;55.50;;;;;;2336728;53;21178;-69
2021/09/06 11:20:34;;;;;;;5.15;2.78;;;27.90;55.60;;;;;;2570920;52;20959;-72
2021/09/06 11:23:01;;;;;;;4.17;2.63;;;28.00;55.40;;;;;;2344061;52;1761452;-69
2021/09/06 11:25:31;;;;;;;4.05;2.50;;;28.10;55.60;;;;;;2487843;52;20985;-69
2021/09/06 11:28:31;;;;;;;4.07;2.65;;;28.10;55.00;;;;;;2355875;53;21531;-68
2021/09/06 11:30:57;;;;;;;4.50;2.60;;;28.20;54.30;;;;;;2601938;52;20978;-68
2021/09/06 11:33:25;;;;;;;4.10;2.55;;;28.20;54.60;;;;;;2356716;53;20954;-68
2021/09/06 11:35:52;;;;;;;4.87;2.70;;;28.30;54.50;;;;;;2479533;52;20969;-68
2021/09/06 11:38:18;;;;;;;5.55;2.67;;;28.30;54.10;;;;;;2478818;52;20993;-69
2021/09/06 11:40:55;;;;;;;3.87;2.30;;;28.30;54.10;;;;;;2352544;52;21061;-68
2021/09/06 11:43:22;;;;;;;6.70;2.60;;;28.40;53.80;;;;;;2355433;53;21078;-67
2021/09/06 11:45:49;;;;;;;4.28;2.70;;;28.50;53.90;;;;;;2602065;52;21004;-73
2021/09/06 11:48:16;;;;;;;5.05;2.78;;;28.50;53.60;;;;;;2360024;52;21154;-69
2021/09/06 11:50:42;;;;;;;4.25;2.65;;;28.50;53.60;;;;;;2345770;52;20942;-72
2021/09/06 11:53:12;;;;;;;3.85;2.47;;;28.60;53.90;;;;;;2360605;52;20998;-68
2021/09/06 11:56:00;;;;;;;4.68;2.60;;;28.60;53.40;;;;;;2478535;53;21001;-70
2021/09/06 11:58:44;;;;;;;3.85;2.30;;;28.70;52.50;;;;;;2355599;53;21061;-73
2021/09/06 12:01:14;;;;;;;4.40;2.55;;;28.70;53.00;;;;;;2489868;52;21972;-68
2021/09/06 12:03:40;;;;;;;4.80;2.95;;;28.80;53.10;;;;;;2352104;53;21401;-69
2021/09/06 12:06:10;;;;;;;4.40;2.55;;;28.80;53.00;;;;;;2363090;52;21134;-71
2021/09/06 12:08:39;;;;;;;3.90;2.47;;;28.90;52.80;;;;;;2367405;52;20978;-69
2021/09/06 12:11:07;;;;;;;7.45;2.90;;;28.90;52.80;;;;;;2602849;52;21394;-69
2021/09/06 12:13:35;;;;;;;4.82;2.72;;;28.90;52.70;;;;;;2356080;53;21648;-69
2021/09/06 12:16:08;;;;;;;4.12;2.75;;;29.00;52.50;;;;;;2346317;53;20961;-68
2021/09/06 12:18:38;;;;;;;4.97;2.90;;;29.00;51.70;;;;;;2407328;53;20923;-70
2021/09/06 12:21:12;;;;;;;5.20;2.85;;;29.10;52.10;;;;;;2588077;52;21025;-69
2021/09/06 12:23:40;;;;;;;4.35;2.72;;;29.20;51.90;;;;;;2336613;53;20943;-70
2021/09/06 12:26:07;;;;;;;4.30;2.65;;;29.20;52.30;;;;;;2602800;52;20975;-70
2021/09/06 12:28:34;;;;;;;5.97;2.87;;;29.30;52.10;;;;;;2384207;52;21632;-70
2021/09/06 12:31:04;;;;;;;4.05;2.67;;;29.30;51.90;;;;;;2351155;52;20950;-74
2021/09/06 12:33:31;;;;;;;3.83;2.53;;;29.40;51.40;;;;;;2466712;52;21318;-68
2021/09/06 12:36:01;;;;;;;4.40;2.90;;;29.40;51.50;;;;;;2350746;53;21123;-68
2021/09/06 12:38:29;;;;;;;4.80;2.90;;;29.50;51.30;;;;;;2355701;52;21006;-69
2021/09/06 12:40:55;;;;;;;4.30;2.72;;;29.50;51.50;;;;;;2350942;53;21413;-68
2021/09/06 12:43:21;;;;;;;4.32;2.83;;;29.50;51.20;;;;;;2358546;52;21929;-68
2021/09/06 12:45:48;;;;;;;3.83;2.75;;;29.60;51.00;;;;;;2345154;52;21482;-69
2021/09/06 12:48:14;;;;;;;4.70;3.00;;;29.60;50.90;;;;;;2395742;52;21100;-72
2021/09/06 12:50:40;;;;;;;3.40;2.42;;;29.70;50.90;;;;;;2403902;52;21499;-68